sensor_id;sensor_type;location;lat;lon;timestamp;pressure;altitude;pressure_sealevel;temperature
80962;BMP280;70424;55.154;14.722;2023-11-19T00:01:30;101606.66;;;3.99
80962;BMP280;70424;55.154;14.722;2023-11-19T00:03:55;101584.03;;;3.97
80962;BMP280;70424;55.154;14.722;2023-11-19T00:06:20;101572.31;;;3.94
80962;BMP280;70424;55.154;14.722;2023-11-19T00:08:45;101587.53;;;4.10
80962;BMP280;70424;55.154;14.722;2023-11-19T00:11:11;101578.94;;;4.12
80962;BMP280;70424;55.154;14.722;2023-11-19T00:13:40;101582.56;;;4.14
80962;BMP280;70424;55.154;14.722;2023-11-19T00:16:06;101580.94;;;4.25
80962;BMP280;70424;55.154;14.722;2023-11-19T00:18:32;101587.19;;;4.33
80962;BMP280;70424;55.154;14.722;2023-11-19T00:20:58;101563.72;;;4.22
80962;BMP280;70424;55.154;14.722;2023-11-19T00:23:23;101559.50;;;4.27
80962;BMP280;70424;55.154;14.722;2023-11-19T00:25:48;101568.28;;;4.46
80962;BMP280;70424;55.154;14.722;2023-11-19T00:28:14;101539.66;;;4.37
80962;BMP280;70424;55.154;14.722;2023-11-19T00:30:39;101536.41;;;4.39
80962;BMP280;70424;55.154;14.722;2023-11-19T00:33:06;101525.03;;;4.40
80962;BMP280;70424;55.154;14.722;2023-11-19T00:35:31;101519.53;;;4.46
80962;BMP280;70424;55.154;14.722;2023-11-19T00:37:58;101522.38;;;4.54
80962;BMP280;70424;55.154;14.722;2023-11-19T00:40:23;101500.59;;;4.46
80962;BMP280;70424;55.154;14.722;2023-11-19T00:42:49;101517.34;;;4.58
80962;BMP280;70424;55.154;14.722;2023-11-19T00:45:14;101522.78;;;4.58
80962;BMP280;70424;55.154;14.722;2023-11-19T00:47:40;101505.91;;;4.52
80962;BMP280;70424;55.154;14.722;2023-11-19T00:50:06;101514.66;;;4.58
80962;BMP280;70424;55.154;14.722;2023-11-19T00:52:34;101509.63;;;4.62
80962;BMP280;70424;55.154;14.722;2023-11-19T00:55:01;101519.13;;;4.68
80962;BMP280;70424;55.154;14.722;2023-11-19T00:57:26;101505.69;;;4.63
80962;BMP280;70424;55.154;14.722;2023-11-19T00:59:52;101481.97;;;4.56
80962;BMP280;70424;55.154;14.722;2023-11-19T01:02:17;101479.66;;;4.60
80962;BMP280;70424;55.154;14.722;2023-11-19T01:04:43;101471.72;;;4.62
80962;BMP280;70424;55.154;14.722;2023-11-19T01:07:09;101488.84;;;4.70
80962;BMP280;70424;55.154;14.722;2023-11-19T01:09:37;101458.91;;;4.62
80962;BMP280;70424;55.154;14.722;2023-11-19T01:12:03;101464.97;;;4.68
80962;BMP280;70424;55.154;14.722;2023-11-19T01:14:29;101482.66;;;4.83
80962;BMP280;70424;55.154;14.722;2023-11-19T01:16:54;101437.47;;;4.64
80962;BMP280;70424;55.154;14.722;2023-11-19T01:19:21;101448.63;;;4.74
80962;BMP280;70424;55.154;14.722;2023-11-19T01:21:47;101430.28;;;4.67
80962;BMP280;70424;55.154;14.722;2023-11-19T01:24:12;101418.44;;;4.70
80962;BMP280;70424;55.154;14.722;2023-11-19T01:26:39;101432.03;;;4.91
80962;BMP280;70424;55.154;14.722;2023-11-19T01:29:10;101404.84;;;4.83
80962;BMP280;70424;55.154;14.722;2023-11-19T01:31:36;101398.47;;;4.81
80962;BMP280;70424;55.154;14.722;2023-11-19T01:34:02;101412.94;;;4.96
80962;BMP280;70424;55.154;14.722;2023-11-19T01:36:27;101378.78;;;4.80
80962;BMP280;70424;55.154;14.722;2023-11-19T01:38:53;101396.38;;;4.87
80962;BMP280;70424;55.154;14.722;2023-11-19T01:41:18;101396.28;;;4.92
80962;BMP280;70424;55.154;14.722;2023-11-19T01:43:44;101391.59;;;4.93
80962;BMP280;70424;55.154;14.722;2023-11-19T01:46:12;101394.69;;;4.97
80962;BMP280;70424;55.154;14.722;2023-11-19T01:48:42;101385.53;;;4.87
80962;BMP280;70424;55.154;14.722;2023-11-19T01:51:08;101390.53;;;4.96
80962;BMP280;70424;55.154;14.722;2023-11-19T01:53:34;101367.13;;;4.85
80962;BMP280;70424;55.154;14.722;2023-11-19T01:56:02;101374.47;;;4.98
80962;BMP280;70424;55.154;14.722;2023-11-19T01:58:28;101357.94;;;4.88
80962;BMP280;70424;55.154;14.722;2023-11-19T02:00:56;101353.03;;;4.87
80962;BMP280;70424;55.154;14.722;2023-11-19T02:03:22;101336.25;;;4.88
80962;BMP280;70424;55.154;14.722;2023-11-19T02:05:48;101334.50;;;4.91
80962;BMP280;70424;55.154;14.722;2023-11-19T02:08:14;101314.50;;;4.81
80962;BMP280;70424;55.154;14.722;2023-11-19T02:10:40;101319.19;;;4.80
80962;BMP280;70424;55.154;14.722;2023-11-19T02:13:05;101312.03;;;4.83
80962;BMP280;70424;55.154;14.722;2023-11-19T02:15:32;101312.94;;;4.85
80962;BMP280;70424;55.154;14.722;2023-11-19T02:18:17;101328.81;;;5.02
80962;BMP280;70424;55.154;14.722;2023-11-19T02:20:42;101306.16;;;4.92
80962;BMP280;70424;55.154;14.722;2023-11-19T02:23:07;101297.50;;;4.93
80962;BMP280;70424;55.154;14.722;2023-11-19T02:25:33;101303.50;;;4.99
80962;BMP280;70424;55.154;14.722;2023-11-19T02:28:00;101278.16;;;4.89
80962;BMP280;70424;55.154;14.722;2023-11-19T02:30:27;101251.19;;;4.84
80962;BMP280;70424;55.154;14.722;2023-11-19T02:32:54;101276.00;;;4.95
80962;BMP280;70424;55.154;14.722;2023-11-19T02:35:22;101253.41;;;4.93
80962;BMP280;70424;55.154;14.722;2023-11-19T02:37:48;101260.56;;;5.03
80962;BMP280;70424;55.154;14.722;2023-11-19T02:40:13;101251.69;;;5.03
80962;BMP280;70424;55.154;14.722;2023-11-19T02:42:39;101239.59;;;5.04
80962;BMP280;70424;55.154;14.722;2023-11-19T02:45:04;101218.94;;;4.93
80962;BMP280;70424;55.154;14.722;2023-11-19T02:47:31;101222.22;;;4.99
80962;BMP280;70424;55.154;14.722;2023-11-19T02:49:57;101239.25;;;5.07
80962;BMP280;70424;55.154;14.722;2023-11-19T02:52:22;101239.81;;;5.14
80962;BMP280;70424;55.154;14.722;2023-11-19T02:54:48;101208.75;;;4.86
80962;BMP280;70424;55.154;14.722;2023-11-19T02:57:13;101203.75;;;4.90
80962;BMP280;70424;55.154;14.722;2023-11-19T02:59:40;101216.13;;;5.06
80962;BMP280;70424;55.154;14.722;2023-11-19T03:02:08;101222.81;;;5.05
80962;BMP280;70424;55.154;14.722;2023-11-19T03:04:37;101190.00;;;4.88
80962;BMP280;70424;55.154;14.722;2023-11-19T03:07:06;101212.88;;;5.08
80962;BMP280;70424;55.154;14.722;2023-11-19T03:09:32;101189.13;;;4.93
80962;BMP280;70424;55.154;14.722;2023-11-19T03:11:58;101212.00;;;5.13
80962;BMP280;70424;55.154;14.722;2023-11-19T03:14:24;101182.09;;;4.98
80962;BMP280;70424;55.154;14.722;2023-11-19T03:16:49;101175.25;;;4.97
80962;BMP280;70424;55.154;14.722;2023-11-19T03:19:16;101202.69;;;5.22
80962;BMP280;70424;55.154;14.722;2023-11-19T03:21:41;101197.06;;;5.20
80962;BMP280;70424;55.154;14.722;2023-11-19T03:24:06;101185.72;;;5.21
80962;BMP280;70424;55.154;14.722;2023-11-19T03:26:33;101160.50;;;5.05
80962;BMP280;70424;55.154;14.722;2023-11-19T03:28:59;101179.03;;;5.22
80962;BMP280;70424;55.154;14.722;2023-11-19T03:31:24;101169.38;;;5.14
80962;BMP280;70424;55.154;14.722;2023-11-19T03:33:50;101181.53;;;5.20
80962;BMP280;70424;55.154;14.722;2023-11-19T03:36:15;101180.28;;;5.21
80962;BMP280;70424;55.154;14.722;2023-11-19T03:38:41;101161.06;;;5.12
80962;BMP280;70424;55.154;14.722;2023-11-19T03:41:16;101167.09;;;5.25
80962;BMP280;70424;55.154;14.722;2023-11-19T03:43:42;101163.84;;;5.27
80962;BMP280;70424;55.154;14.722;2023-11-19T03:46:20;101117.13;;;5.05
80962;BMP280;70424;55.154;14.722;2023-11-19T03:48:49;101133.28;;;5.19
80962;BMP280;70424;55.154;14.722;2023-11-19T03:51:15;101117.31;;;5.07
80962;BMP280;70424;55.154;14.722;2023-11-19T03:53:47;101146.38;;;5.28
80962;BMP280;70424;55.154;14.722;2023-11-19T03:56:12;101105.75;;;5.07
80962;BMP280;70424;55.154;14.722;2023-11-19T03:58:38;101120.69;;;5.29
80962;BMP280;70424;55.154;14.722;2023-11-19T04:01:05;101105.31;;;5.24
80962;BMP280;70424;55.154;14.722;2023-11-19T04:03:30;101094.13;;;5.27
80962;BMP280;70424;55.154;14.722;2023-11-19T04:05:56;101088.66;;;5.20
80962;BMP280;70424;55.154;14.722;2023-11-19T04:08:21;101094.13;;;5.27
80962;BMP280;70424;55.154;14.722;2023-11-19T04:10:47;101055.56;;;5.14
80962;BMP280;70424;55.154;14.722;2023-11-19T04:13:12;101064.13;;;5.25
80962;BMP280;70424;55.154;14.722;2023-11-19T04:15:37;101061.22;;;5.23
80962;BMP280;70424;55.154;14.722;2023-11-19T04:18:03;101082.38;;;5.32
80962;BMP280;70424;55.154;14.722;2023-11-19T04:20:28;101040.41;;;5.18
80962;BMP280;70424;55.154;14.722;2023-11-19T04:22:54;101049.50;;;5.28
80962;BMP280;70424;55.154;14.722;2023-11-19T04:25:19;101036.75;;;5.08
80962;BMP280;70424;55.154;14.722;2023-11-19T04:27:44;101059.25;;;5.31
80962;BMP280;70424;55.154;14.722;2023-11-19T04:30:10;101044.44;;;5.25
80962;BMP280;70424;55.154;14.722;2023-11-19T04:32:36;101042.25;;;5.23
80962;BMP280;70424;55.154;14.722;2023-11-19T04:35:02;101035.38;;;5.22
80962;BMP280;70424;55.154;14.722;2023-11-19T04:37:27;101035.03;;;5.26
80962;BMP280;70424;55.154;14.722;2023-11-19T04:39:53;101017.63;;;5.14
80962;BMP280;70424;55.154;14.722;2023-11-19T04:42:18;101022.16;;;5.19
80962;BMP280;70424;55.154;14.722;2023-11-19T04:44:44;101014.97;;;5.21
80962;BMP280;70424;55.154;14.722;2023-11-19T04:47:10;100992.91;;;5.10
80962;BMP280;70424;55.154;14.722;2023-11-19T04:49:40;101008.63;;;5.19
80962;BMP280;70424;55.154;14.722;2023-11-19T04:52:05;101013.16;;;5.24
80962;BMP280;70424;55.154;14.722;2023-11-19T04:54:30;100983.13;;;5.14
80962;BMP280;70424;55.154;14.722;2023-11-19T04:56:56;101016.41;;;5.22
80962;BMP280;70424;55.154;14.722;2023-11-19T04:59:21;101009.34;;;5.19
80962;BMP280;70424;55.154;14.722;2023-11-19T05:01:47;100997.38;;;5.15
80962;BMP280;70424;55.154;14.722;2023-11-19T05:04:13;101017.69;;;5.29
80962;BMP280;70424;55.154;14.722;2023-11-19T05:06:38;100982.94;;;5.12
80962;BMP280;70424;55.154;14.722;2023-11-19T05:09:04;100996.16;;;5.16
80962;BMP280;70424;55.154;14.722;2023-11-19T05:11:38;101003.41;;;5.28
80962;BMP280;70424;55.154;14.722;2023-11-19T05:14:04;101001.41;;;5.29
80962;BMP280;70424;55.154;14.722;2023-11-19T05:16:30;100999.25;;;5.27
80962;BMP280;70424;55.154;14.722;2023-11-19T05:18:56;100974.66;;;5.18
80962;BMP280;70424;55.154;14.722;2023-11-19T05:21:21;100977.38;;;5.18
80962;BMP280;70424;55.154;14.722;2023-11-19T05:23:47;100982.09;;;5.25
80962;BMP280;70424;55.154;14.722;2023-11-19T05:26:20;100955.50;;;5.16
80962;BMP280;70424;55.154;14.722;2023-11-19T05:28:45;100943.94;;;5.07
80962;BMP280;70424;55.154;14.722;2023-11-19T05:31:11;100949.56;;;5.10
80962;BMP280;70424;55.154;14.722;2023-11-19T05:33:36;100945.00;;;5.04
80962;BMP280;70424;55.154;14.722;2023-11-19T05:36:02;100931.28;;;5.02
80962;BMP280;70424;55.154;14.722;2023-11-19T05:38:29;100969.81;;;5.24
80962;BMP280;70424;55.154;14.722;2023-11-19T05:40:54;100953.69;;;5.18
80962;BMP280;70424;55.154;14.722;2023-11-19T05:43:19;100942.88;;;5.18
80962;BMP280;70424;55.154;14.722;2023-11-19T05:45:49;100931.31;;;5.10
80962;BMP280;70424;55.154;14.722;2023-11-19T05:48:14;100945.41;;;5.24
80962;BMP280;70424;55.154;14.722;2023-11-19T05:50:39;100945.97;;;5.22
80962;BMP280;70424;55.154;14.722;2023-11-19T05:53:05;100922.63;;;5.04
80962;BMP280;70424;55.154;14.722;2023-11-19T05:55:34;100911.41;;;5.07
80962;BMP280;70424;55.154;14.722;2023-11-19T05:58:01;100895.69;;;5.06
80962;BMP280;70424;55.154;14.722;2023-11-19T06:00:26;100874.19;;;4.93
80962;BMP280;70424;55.154;14.722;2023-11-19T06:02:52;100890.47;;;5.08
80962;BMP280;70424;55.154;14.722;2023-11-19T06:05:17;100889.56;;;5.13
80962;BMP280;70424;55.154;14.722;2023-11-19T06:07:43;100876.56;;;5.04
80962;BMP280;70424;55.154;14.722;2023-11-19T06:10:09;100884.53;;;5.10
80962;BMP280;70424;55.154;14.722;2023-11-19T06:12:35;100873.31;;;5.05
80962;BMP280;70424;55.154;14.722;2023-11-19T06:15:04;100878.19;;;5.07
80962;BMP280;70424;55.154;14.722;2023-11-19T06:17:30;100874.75;;;5.14
80962;BMP280;70424;55.154;14.722;2023-11-19T06:19:55;100878.38;;;5.17
80962;BMP280;70424;55.154;14.722;2023-11-19T06:22:20;100854.72;;;5.02
80962;BMP280;70424;55.154;14.722;2023-11-19T06:24:46;100862.13;;;5.09
80962;BMP280;70424;55.154;14.722;2023-11-19T06:27:12;100850.53;;;5.01
80962;BMP280;70424;55.154;14.722;2023-11-19T06:29:38;100873.13;;;5.11
80962;BMP280;70424;55.154;14.722;2023-11-19T06:32:06;100866.44;;;5.12
80962;BMP280;70424;55.154;14.722;2023-11-19T06:34:31;100850.91;;;5.05
80962;BMP280;70424;55.154;14.722;2023-11-19T06:36:58;100852.00;;;5.02
80962;BMP280;70424;55.154;14.722;2023-11-19T06:39:23;100833.00;;;4.94
80962;BMP280;70424;55.154;14.722;2023-11-19T06:41:49;100839.34;;;5.04
80962;BMP280;70424;55.154;14.722;2023-11-19T06:44:14;100849.47;;;5.04
80962;BMP280;70424;55.154;14.722;2023-11-19T06:46:40;100841.69;;;5.08
80962;BMP280;70424;55.154;14.722;2023-11-19T06:49:05;100842.78;;;5.13
80962;BMP280;70424;55.154;14.722;2023-11-19T06:51:33;100845.34;;;5.11
80962;BMP280;70424;55.154;14.722;2023-11-19T06:53:58;100784.06;;;4.77
80962;BMP280;70424;55.154;14.722;2023-11-19T06:56:25;100839.19;;;5.02
80962;BMP280;70424;55.154;14.722;2023-11-19T06:58:51;100830.34;;;5.02
80962;BMP280;70424;55.154;14.722;2023-11-19T07:01:17;100827.63;;;5.02
80962;BMP280;70424;55.154;14.722;2023-11-19T07:03:47;100797.25;;;4.81
80962;BMP280;70424;55.154;14.722;2023-11-19T07:06:12;100811.53;;;4.89
80962;BMP280;70424;55.154;14.722;2023-11-19T07:08:38;100831.03;;;5.02
80962;BMP280;70424;55.154;14.722;2023-11-19T07:11:04;100829.59;;;4.94
80962;BMP280;70424;55.154;14.722;2023-11-19T07:13:29;100826.34;;;5.03
80962;BMP280;70424;55.154;14.722;2023-11-19T07:15:56;100812.97;;;4.97
80962;BMP280;70424;55.154;14.722;2023-11-19T07:18:21;100803.94;;;4.87
80962;BMP280;70424;55.154;14.722;2023-11-19T07:20:48;100796.19;;;4.84
80962;BMP280;70424;55.154;14.722;2023-11-19T07:23:13;100796.53;;;4.88
80962;BMP280;70424;55.154;14.722;2023-11-19T07:25:40;100801.78;;;4.93
80962;BMP280;70424;55.154;14.722;2023-11-19T07:28:05;100790.94;;;4.86
80962;BMP280;70424;55.154;14.722;2023-11-19T07:30:30;100804.31;;;4.91
80962;BMP280;70424;55.154;14.722;2023-11-19T07:32:56;100775.22;;;4.84
80962;BMP280;70424;55.154;14.722;2023-11-19T07:35:21;100791.28;;;4.82
80962;BMP280;70424;55.154;14.722;2023-11-19T07:37:47;100768.00;;;4.71
80962;BMP280;70424;55.154;14.722;2023-11-19T07:40:13;100785.16;;;4.74
80962;BMP280;70424;55.154;14.722;2023-11-19T07:42:38;100780.66;;;4.84
80962;BMP280;70424;55.154;14.722;2023-11-19T07:45:04;100785.50;;;4.78
80962;BMP280;70424;55.154;14.722;2023-11-19T07:47:30;100778.09;;;4.78
80962;BMP280;70424;55.154;14.722;2023-11-19T07:49:56;100768.72;;;4.64
80962;BMP280;70424;55.154;14.722;2023-11-19T07:52:21;100752.47;;;4.64
80962;BMP280;70424;55.154;14.722;2023-11-19T07:54:46;100774.31;;;4.82
80962;BMP280;70424;55.154;14.722;2023-11-19T07:57:12;100752.31;;;4.70
80962;BMP280;70424;55.154;14.722;2023-11-19T07:59:37;100774.31;;;4.82
80962;BMP280;70424;55.154;14.722;2023-11-19T08:02:02;100752.13;;;4.75
80962;BMP280;70424;55.154;14.722;2023-11-19T08:04:30;100746.13;;;4.62
80962;BMP280;70424;55.154;14.722;2023-11-19T08:06:55;100738.78;;;4.70
80962;BMP280;70424;55.154;14.722;2023-11-19T08:09:20;100735.31;;;4.62
80962;BMP280;70424;55.154;14.722;2023-11-19T08:11:46;100689.28;;;4.39
80962;BMP280;70424;55.154;14.722;2023-11-19T08:14:11;100725.59;;;4.74
80962;BMP280;70424;55.154;14.722;2023-11-19T08:16:39;100701.91;;;4.59
80962;BMP280;70424;55.154;14.722;2023-11-19T08:19:04;100723.97;;;4.71
80962;BMP280;70424;55.154;14.722;2023-11-19T08:21:30;100730.09;;;4.71
80962;BMP280;70424;55.154;14.722;2023-11-19T08:23:55;100709.16;;;4.72
80962;BMP280;70424;55.154;14.722;2023-11-19T08:26:20;100703.56;;;4.70
80962;BMP280;70424;55.154;14.722;2023-11-19T08:28:45;100704.09;;;4.68
80962;BMP280;70424;55.154;14.722;2023-11-19T08:31:11;100710.97;;;4.77
80962;BMP280;70424;55.154;14.722;2023-11-19T08:33:37;100694.19;;;4.63
80962;BMP280;70424;55.154;14.722;2023-11-19T08:36:03;100687.84;;;4.68
80962;BMP280;70424;55.154;14.722;2023-11-19T08:38:29;100715.66;;;4.76
80962;BMP280;70424;55.154;14.722;2023-11-19T08:40:54;100673.41;;;4.58
80962;BMP280;70424;55.154;14.722;2023-11-19T08:43:24;100682.97;;;4.67
80962;BMP280;70424;55.154;14.722;2023-11-19T08:45:50;100687.84;;;4.68
80962;BMP280;70424;55.154;14.722;2023-11-19T08:48:16;100685.34;;;4.70
80962;BMP280;70424;55.154;14.722;2023-11-19T08:50:41;100644.72;;;4.47
80962;BMP280;70424;55.154;14.722;2023-11-19T08:53:06;100655.75;;;4.57
80962;BMP280;70424;55.154;14.722;2023-11-19T08:55:32;100688.56;;;4.76
80962;BMP280;70424;55.154;14.722;2023-11-19T08:57:57;100671.41;;;4.59
80962;BMP280;70424;55.154;14.722;2023-11-19T09:00:23;100690.03;;;4.70
80962;BMP280;70424;55.154;14.722;2023-11-19T09:02:48;100665.28;;;4.58
80962;BMP280;70424;55.154;14.722;2023-11-19T09:05:14;100675.75;;;4.62
80962;BMP280;70424;55.154;14.722;2023-11-19T09:07:39;100664.91;;;4.62
80962;BMP280;70424;55.154;14.722;2023-11-19T09:10:05;100668.19;;;4.68
80962;BMP280;70424;55.154;14.722;2023-11-19T09:12:31;100679.00;;;4.75
80962;BMP280;70424;55.154;14.722;2023-11-19T09:14:56;100665.66;;;4.70
80962;BMP280;70424;55.154;14.722;2023-11-19T09:17:21;100669.06;;;4.78
80962;BMP280;70424;55.154;14.722;2023-11-19T09:19:46;100664.56;;;4.81
80962;BMP280;70424;55.154;14.722;2023-11-19T09:22:12;100640.56;;;4.77
80962;BMP280;70424;55.154;14.722;2023-11-19T09:24:37;100622.88;;;4.61
80962;BMP280;70424;55.154;14.722;2023-11-19T09:27:03;100650.13;;;4.78
80962;BMP280;70424;55.154;14.722;2023-11-19T09:29:31;100655.53;;;4.86
80962;BMP280;70424;55.154;14.722;2023-11-19T09:31:57;100639.84;;;4.76
80962;BMP280;70424;55.154;14.722;2023-11-19T09:34:22;100647.75;;;4.82
80962;BMP280;70424;55.154;14.722;2023-11-19T09:36:48;100643.59;;;4.81
80962;BMP280;70424;55.154;14.722;2023-11-19T09:39:13;100648.69;;;4.85
80962;BMP280;70424;55.154;14.722;2023-11-19T09:41:45;100648.69;;;4.85
80962;BMP280;70424;55.154;14.722;2023-11-19T09:44:11;100615.28;;;4.74
80962;BMP280;70424;55.154;14.722;2023-11-19T09:46:38;100611.16;;;4.73
80962;BMP280;70424;55.154;14.722;2023-11-19T09:49:06;100615.84;;;4.73
80962;BMP280;70424;55.154;14.722;2023-11-19T09:51:33;100632.06;;;4.81
80962;BMP280;70424;55.154;14.722;2023-11-19T09:53:59;100621.44;;;4.75
80962;BMP280;70424;55.154;14.722;2023-11-19T09:56:25;100607.34;;;4.76
80962;BMP280;70424;55.154;14.722;2023-11-19T09:58:52;100603.03;;;4.66
80962;BMP280;70424;55.154;14.722;2023-11-19T10:01:17;100619.44;;;4.75
80962;BMP280;70424;55.154;14.722;2023-11-19T10:03:46;100616.00;;;4.75
80962;BMP280;70424;55.154;14.722;2023-11-19T10:06:12;100608.81;;;4.70
80962;BMP280;70424;55.154;14.722;2023-11-19T10:08:38;100595.28;;;4.70
80962;BMP280;70424;55.154;14.722;2023-11-19T10:11:07;100595.28;;;4.70
80962;BMP280;70424;55.154;14.722;2023-11-19T10:13:36;100562.81;;;4.47
80962;BMP280;70424;55.154;14.722;2023-11-19T10:16:10;100590.59;;;4.70
80962;BMP280;70424;55.154;14.722;2023-11-19T10:18:37;100549.81;;;4.53
80962;BMP280;70424;55.154;14.722;2023-11-19T10:21:06;100571.63;;;4.70
80962;BMP280;70424;55.154;14.722;2023-11-19T10:23:48;100560.81;;;4.55
80962;BMP280;70424;55.154;14.722;2023-11-19T10:26:14;100530.50;;;4.49
80962;BMP280;70424;55.154;14.722;2023-11-19T10:28:39;100557.00;;;4.66
80962;BMP280;70424;55.154;14.722;2023-11-19T10:31:10;100553.75;;;4.67
80962;BMP280;70424;55.154;14.722;2023-11-19T10:33:36;100559.16;;;4.67
80962;BMP280;70424;55.154;14.722;2023-11-19T10:36:01;100518.59;;;4.52
80962;BMP280;70424;55.154;14.722;2023-11-19T10:38:26;100539.69;;;4.61
80962;BMP280;70424;55.154;14.722;2023-11-19T10:40:53;100518.78;;;4.54
80962;BMP280;70424;55.154;14.722;2023-11-19T10:43:20;100535.53;;;4.60
80962;BMP280;70424;55.154;14.722;2023-11-19T10:45:48;100513.38;;;4.54
80962;BMP280;70424;55.154;14.722;2023-11-19T10:48:13;100526.72;;;4.52
80962;BMP280;70424;55.154;14.722;2023-11-19T10:50:40;100495.88;;;4.47
80962;BMP280;70424;55.154;14.722;2023-11-19T10:53:07;100502.75;;;4.56
80962;BMP280;70424;55.154;14.722;2023-11-19T10:55:34;100485.75;;;4.48
80962;BMP280;70424;55.154;14.722;2023-11-19T10:58:04;100491.34;;;4.58
80962;BMP280;70424;55.154;14.722;2023-11-19T11:00:37;100481.75;;;4.64
80962;BMP280;70424;55.154;14.722;2023-11-19T11:03:10;100459.97;;;4.47
80962;BMP280;70424;55.154;14.722;2023-11-19T11:05:35;100449.88;;;4.40
80962;BMP280;70424;55.154;14.722;2023-11-19T11:08:04;100474.91;;;4.56
80962;BMP280;70424;55.154;14.722;2023-11-19T11:10:32;100484.50;;;4.57
80962;BMP280;70424;55.154;14.722;2023-11-19T11:13:02;100443.75;;;4.39
80962;BMP280;70424;55.154;14.722;2023-11-19T11:15:30;100457.25;;;4.47
80962;BMP280;70424;55.154;14.722;2023-11-19T11:17:59;100463.22;;;4.53
80962;BMP280;70424;55.154;14.722;2023-11-19T11:20:28;100440.69;;;4.35
80962;BMP280;70424;55.154;14.722;2023-11-19T11:28:38;100471.88;;;4.52
80962;BMP280;70424;55.154;14.722;2023-11-19T11:36:22;100436.50;;;4.49
80962;BMP280;70424;55.154;14.722;2023-11-19T11:38:49;100421.75;;;4.35
80962;BMP280;70424;55.154;14.722;2023-11-19T11:41:19;100446.25;;;4.53
80962;BMP280;70424;55.154;14.722;2023-11-19T11:48:59;100435.97;;;4.51
80962;BMP280;70424;55.154;14.722;2023-11-19T11:54:30;100409.47;;;4.42
80962;BMP280;70424;55.154;14.722;2023-11-19T11:57:10;100418.09;;;4.48
80962;BMP280;70424;55.154;14.722;2023-11-19T12:02:21;100403.50;;;4.51
80962;BMP280;70424;55.154;14.722;2023-11-19T12:04:48;100405.66;;;4.53
80962;BMP280;70424;55.154;14.722;2023-11-19T12:07:17;100419.03;;;4.51
80962;BMP280;70424;55.154;14.722;2023-11-19T12:09:53;100402.59;;;4.48
80962;BMP280;70424;55.154;14.722;2023-11-19T12:12:22;100403.16;;;4.39
80962;BMP280;70424;55.154;14.722;2023-11-19T12:20:00;100417.56;;;4.49
80962;BMP280;70424;55.154;14.722;2023-11-19T12:22:25;100422.44;;;4.51
80962;BMP280;70424;55.154;14.722;2023-11-19T12:24:54;100394.19;;;4.37
80962;BMP280;70424;55.154;14.722;2023-11-19T12:27:20;100400.59;;;4.49
80962;BMP280;70424;55.154;14.722;2023-11-19T12:29:49;100391.47;;;4.37
80962;BMP280;70424;55.154;14.722;2023-11-19T12:32:14;100419.91;;;4.53
80962;BMP280;70424;55.154;14.722;2023-11-19T12:34:40;100418.09;;;4.56
80962;BMP280;70424;55.154;14.722;2023-11-19T12:37:06;100409.97;;;4.56
80962;BMP280;70424;55.154;14.722;2023-11-19T12:39:32;100404.72;;;4.58
80962;BMP280;70424;55.154;14.722;2023-11-19T12:41:57;100405.81;;;4.55
80962;BMP280;70424;55.154;14.722;2023-11-19T12:44:27;100392.13;;;4.53
80962;BMP280;70424;55.154;14.722;2023-11-19T12:47:06;100400.59;;;4.57
80962;BMP280;70424;55.154;14.722;2023-11-19T12:49:35;100395.72;;;4.55
80962;BMP280;70424;55.154;14.722;2023-11-19T12:52:00;100386.34;;;4.56
80962;BMP280;70424;55.154;14.722;2023-11-19T12:54:33;100390.63;;;4.59
80962;BMP280;70424;55.154;14.722;2023-11-19T12:56:58;100376.06;;;4.55
80962;BMP280;70424;55.154;14.722;2023-11-19T12:59:24;100371.75;;;4.52
80962;BMP280;70424;55.154;14.722;2023-11-19T13:01:58;100372.97;;;4.58
80962;BMP280;70424;55.154;14.722;2023-11-19T13:04:28;100358.75;;;4.50
80962;BMP280;70424;55.154;14.722;2023-11-19T13:06:53;100340.91;;;4.47
80962;BMP280;70424;55.154;14.722;2023-11-19T13:09:26;100354.00;;;4.58
80962;BMP280;70424;55.154;14.722;2023-11-19T13:11:52;100345.34;;;4.60
80962;BMP280;70424;55.154;14.722;2023-11-19T13:14:18;100314.09;;;4.34
80962;BMP280;70424;55.154;14.722;2023-11-19T13:16:44;100339.75;;;4.58
80962;BMP280;70424;55.154;14.722;2023-11-19T13:19:12;100323.59;;;4.50
80962;BMP280;70424;55.154;14.722;2023-11-19T13:21:37;100303.03;;;4.39
80962;BMP280;70424;55.154;14.722;2023-11-19T13:24:07;100325.53;;;4.57
80962;BMP280;70424;55.154;14.722;2023-11-19T13:26:32;100320.81;;;4.58
80962;BMP280;70424;55.154;14.722;2023-11-19T13:28:58;100303.00;;;4.47
80962;BMP280;70424;55.154;14.722;2023-11-19T13:31:23;100297.78;;;4.41
80962;BMP280;70424;55.154;14.722;2023-11-19T13:33:49;100285.78;;;4.35
80962;BMP280;70424;55.154;14.722;2023-11-19T13:36:14;100322.13;;;4.57
80962;BMP280;70424;55.154;14.722;2023-11-19T13:38:39;100315.41;;;4.58
80962;BMP280;70424;55.154;14.722;2023-11-19T13:41:07;100316.84;;;4.59
80962;BMP280;70424;55.154;14.722;2023-11-19T13:43:35;100326.03;;;4.63
80962;BMP280;70424;55.154;14.722;2023-11-19T13:46:00;100295.44;;;4.45
80962;BMP280;70424;55.154;14.722;2023-11-19T13:48:26;100310.22;;;4.52
80962;BMP280;70424;55.154;14.722;2023-11-19T13:50:55;100311.81;;;4.55
80962;BMP280;70424;55.154;14.722;2023-11-19T13:53:20;100320.63;;;4.63
80962;BMP280;70424;55.154;14.722;2023-11-19T13:55:46;100302.47;;;4.48
80962;BMP280;70424;55.154;14.722;2023-11-19T13:58:12;100306.72;;;4.59
80962;BMP280;70424;55.154;14.722;2023-11-19T14:00:38;100310.31;;;4.62
80962;BMP280;70424;55.154;14.722;2023-11-19T14:03:03;100324.19;;;4.66
80962;BMP280;70424;55.154;14.722;2023-11-19T14:05:29;100313.09;;;4.54
80962;BMP280;70424;55.154;14.722;2023-11-19T14:07:54;100311.22;;;4.64
80962;BMP280;70424;55.154;14.722;2023-11-19T14:10:22;100300.28;;;4.55
80962;BMP280;70424;55.154;14.722;2023-11-19T14:12:48;100295.41;;;4.53
80962;BMP280;70424;55.154;14.722;2023-11-19T14:15:15;100304.75;;;4.60
80962;BMP280;70424;55.154;14.722;2023-11-19T14:17:42;100314.81;;;4.67
80962;BMP280;70424;55.154;14.722;2023-11-19T14:20:09;100300.75;;;4.61